createdAt,value
2018-05-10T00:00:00.773Z,20.09
2018-05-10T00:02:28.469Z,20.02
2018-05-10T00:04:55.988Z,20.06
2018-05-10T00:07:23.512Z,19.97
2018-05-10T00:09:51.677Z,20.07
2018-05-10T00:12:19.189Z,20.08
2018-05-10T00:14:46.713Z,20.07
2018-05-10T00:17:14.284Z,20.03
2018-05-10T00:19:41.804Z,20.07
2018-05-10T00:22:09.318Z,20.05
2018-05-10T00:24:37.112Z,20.01
2018-05-10T00:27:04.641Z,20.04
2018-05-10T00:29:32.173Z,20.03
2018-05-10T00:31:59.801Z,20.05
2018-05-10T00:34:27.312Z,20.02
2018-05-10T00:36:54.840Z,20.08
2018-05-10T00:39:22.452Z,20.09
2018-05-10T00:41:49.960Z,20.13
2018-05-10T00:44:17.477Z,20.08
2018-05-10T00:46:45.376Z,20.12
2018-05-10T00:49:12.904Z,20.13
2018-05-10T00:51:40.420Z,20.16
2018-05-10T00:54:08.196Z,19.93
2018-05-10T00:56:35.718Z,20.00
2018-05-10T00:59:03.313Z,20.09
2018-05-10T01:01:31.009Z,19.99
2018-05-10T01:03:58.533Z,19.99
2018-05-10T01:06:26.176Z,19.80
2018-05-10T01:08:53.750Z,19.83
2018-05-10T01:11:21.390Z,19.86
2018-05-10T01:13:48.937Z,19.80
2018-05-10T01:16:20.153Z,19.73
2018-05-10T01:18:47.845Z,19.67
2018-05-10T01:21:15.507Z,19.48
2018-05-10T01:23:43.211Z,19.60
2018-05-10T01:26:10.729Z,19.51
2018-05-10T01:28:38.453Z,19.65
2018-05-10T01:31:06.127Z,19.70
2018-05-10T01:33:33.637Z,19.56
2018-05-10T01:36:14.187Z,19.61
2018-05-10T01:38:41.701Z,19.74
2018-05-10T01:41:10.740Z,19.39
2018-05-10T01:43:38.368Z,19.68
2018-05-10T01:46:05.889Z,19.66
2018-05-10T01:48:33.422Z,19.63
2018-05-10T01:51:01.152Z,19.73
2018-05-10T01:53:28.655Z,19.57
2018-05-10T01:55:56.240Z,19.22
2018-05-10T01:58:23.945Z,19.35
2018-05-10T02:00:52.533Z,19.48
2018-05-10T02:03:20.776Z,19.58
2018-05-10T02:05:48.769Z,19.65
2018-05-10T02:08:16.288Z,19.54
2018-05-10T02:10:43.897Z,19.46
2018-05-10T02:13:12.088Z,19.46
2018-05-10T02:15:39.614Z,19.30
2018-05-10T02:18:07.129Z,19.48
2018-05-10T02:20:34.683Z,19.48
2018-05-10T02:23:02.785Z,19.39
2018-05-10T02:25:31.118Z,19.35
2018-05-10T02:27:58.840Z,19.33
2018-05-10T02:30:26.357Z,18.40
2018-05-10T02:32:53.895Z,18.62
2018-05-10T02:35:21.621Z,18.81
2018-05-10T02:37:49.144Z,18.90
2018-05-10T02:40:16.660Z,18.90
2018-05-10T02:42:44.505Z,18.70
2018-05-10T02:45:12.025Z,18.60
2018-05-10T02:47:39.538Z,18.72
2018-05-10T02:50:07.278Z,18.54
2018-05-10T02:52:34.793Z,18.57
2018-05-10T02:55:02.330Z,18.54
2018-05-10T02:57:30.069Z,18.49
2018-05-10T02:59:57.593Z,18.42
2018-05-10T03:02:25.113Z,18.34
2018-05-10T03:04:52.800Z,18.09
2018-05-10T03:07:20.325Z,18.25
2018-05-10T03:09:47.844Z,18.22
2018-05-10T03:12:15.620Z,18.12
2018-05-10T03:14:43.601Z,18.08
2018-05-10T03:17:11.129Z,18.06
2018-05-10T03:19:38.816Z,18.01
2018-05-10T03:22:06.341Z,18.06
2018-05-10T03:24:33.865Z,18.06
2018-05-10T03:27:01.598Z,18.01
2018-05-10T03:29:29.120Z,18.17
2018-05-10T03:31:56.660Z,18.26
2018-05-10T03:34:24.584Z,18.27
2018-05-10T03:36:52.571Z,18.32
2018-05-10T03:39:20.097Z,18.24
2018-05-10T03:41:47.776Z,18.09
2018-05-10T03:44:15.292Z,17.60
2018-05-10T03:46:42.812Z,17.43
2018-05-10T03:49:10.620Z,17.30
2018-05-10T03:51:38.148Z,16.86
2018-05-10T03:54:05.688Z,16.79
2018-05-10T03:56:33.432Z,17.03
2018-05-10T03:59:00.951Z,17.03
2018-05-10T04:01:28.466Z,17.13
2018-05-10T04:04:08.115Z,17.07
2018-05-10T04:06:47.633Z,17.28
2018-05-10T04:09:27.164Z,17.15
2018-05-10T04:11:54.694Z,17.15
2018-05-10T04:14:22.217Z,16.96
2018-05-10T04:16:50.056Z,17.21
2018-05-10T04:19:17.572Z,17.22
2018-05-10T04:21:45.097Z,17.34
2018-05-10T04:24:12.953Z,17.55
2018-05-10T04:26:40.474Z,17.73
2018-05-10T04:29:08.004Z,17.88
2018-05-10T04:31:35.560Z,17.91
2018-05-10T04:34:03.108Z,18.06
2018-05-10T04:36:30.633Z,18.27
2018-05-10T04:38:58.603Z,18.29
2018-05-10T04:41:26.133Z,18.31
2018-05-10T04:43:53.668Z,18.51
2018-05-10T04:46:21.386Z,18.34
2018-05-10T04:48:48.905Z,18.31
2018-05-10T04:51:16.420Z,18.16
2018-05-10T04:53:43.973Z,18.22
2018-05-10T04:56:11.495Z,17.94
2018-05-10T04:58:39.026Z,17.94
2018-05-10T05:01:06.746Z,17.90
2018-05-10T05:03:34.264Z,17.68
2018-05-10T05:06:01.804Z,17.79
2018-05-10T05:08:29.728Z,17.93
2018-05-10T05:10:57.249Z,17.90
2018-05-10T05:13:24.776Z,17.93
2018-05-10T05:15:52.344Z,18.10
2018-05-10T05:18:19.865Z,18.35
2018-05-10T05:20:47.384Z,18.38
2018-05-10T05:23:15.084Z,18.47
2018-05-10T05:25:42.604Z,18.60
2018-05-10T05:28:10.135Z,18.90
2018-05-10T05:30:37.968Z,18.61
2018-05-10T05:33:05.494Z,18.62
2018-05-10T05:35:33.025Z,18.58
2018-05-10T05:38:00.750Z,18.25
2018-05-10T05:40:28.275Z,17.94
2018-05-10T05:42:55.796Z,17.76
2018-05-10T05:45:23.528Z,17.94
2018-05-10T05:47:51.050Z,18.15
2018-05-10T05:50:18.608Z,18.18
2018-05-10T05:52:46.334Z,18.27
2018-05-10T05:55:13.893Z,17.99
2018-05-10T05:57:41.413Z,17.95
2018-05-10T06:00:09.080Z,18.05
2018-05-10T06:02:36.600Z,17.91
2018-05-10T06:05:04.132Z,18.21
2018-05-10T06:07:31.889Z,18.41
2018-05-10T06:09:59.493Z,18.53
2018-05-10T06:12:27.047Z,18.57
2018-05-10T06:14:54.619Z,18.21
2018-05-10T06:17:22.141Z,18.47
2018-05-10T06:19:49.676Z,18.37
2018-05-10T06:22:17.459Z,18.39
2018-05-10T06:24:45.046Z,18.04
2018-05-10T06:27:12.525Z,18.11
2018-05-10T06:29:40.320Z,18.03
2018-05-10T06:32:08.802Z,17.80
2018-05-10T06:34:36.324Z,17.84
2018-05-10T06:37:04.217Z,18.13
2018-05-10T06:39:31.741Z,18.09
2018-05-10T06:41:59.261Z,18.08
2018-05-10T06:44:27.126Z,18.37
2018-05-10T06:46:55.382Z,18.66
2018-05-10T06:49:23.164Z,18.89
2018-05-10T06:51:51.023Z,19.00
2018-05-10T06:54:18.591Z,19.73
2018-05-10T06:56:46.116Z,20.15
2018-05-10T06:59:13.684Z,20.66
2018-05-10T07:01:41.199Z,21.10
2018-05-10T07:04:08.740Z,20.82
2018-05-10T07:06:36.668Z,21.21
2018-05-10T07:09:05.497Z,21.63
2018-05-10T07:11:33.204Z,22.50
2018-05-10T07:14:01.113Z,23.09
2018-05-10T07:16:28.649Z,22.67
2018-05-10T07:18:56.176Z,22.45
2018-05-10T07:21:23.790Z,22.24
2018-05-10T07:23:51.766Z,22.79
2018-05-10T07:26:19.548Z,22.55
2018-05-10T07:28:47.475Z,22.61
2018-05-10T07:31:15.731Z,22.48
2018-05-10T07:33:43.634Z,21.51
2018-05-10T07:36:12.122Z,20.99
2018-05-10T07:38:39.641Z,21.09
2018-05-10T07:41:07.337Z,20.70
2018-05-10T07:43:35.411Z,20.45
2018-05-10T07:46:02.961Z,20.06
2018-05-10T07:48:30.631Z,20.66
2018-05-10T07:50:58.497Z,20.88
2018-05-10T07:53:27.388Z,21.03
2018-05-10T07:55:55.768Z,20.90
2018-05-10T07:58:23.762Z,20.23
2018-05-10T08:00:52.436Z,20.93
2018-05-10T08:03:20.359Z,20.60
2018-05-10T08:05:48.343Z,20.53
2018-05-10T08:08:16.533Z,20.31
2018-05-10T08:10:44.200Z,20.68
2018-05-10T08:13:12.044Z,20.83
2018-05-10T08:15:40.132Z,20.86
2018-05-10T08:18:08.102Z,20.62
2018-05-10T08:20:36.123Z,20.99
2018-05-10T08:23:04.042Z,20.82
2018-05-10T08:25:31.916Z,21.10
2018-05-10T08:28:00.048Z,21.66
2018-05-10T08:30:27.845Z,22.52
2018-05-10T08:32:55.783Z,22.99
2018-05-10T08:35:24.602Z,24.16
2018-05-10T08:37:52.501Z,24.84
2018-05-10T08:40:20.151Z,24.64
2018-05-10T08:42:47.995Z,25.85
2018-05-10T08:45:15.863Z,26.11
2018-05-10T08:47:43.729Z,25.69
2018-05-10T08:50:11.492Z,26.98
2018-05-10T08:52:39.871Z,27.20
2018-05-10T08:55:07.739Z,28.32
2018-05-10T08:57:35.587Z,27.52
2018-05-10T09:00:03.397Z,28.21
2018-05-10T09:02:31.338Z,28.87
2018-05-10T09:04:59.410Z,28.79
2018-05-10T09:07:27.727Z,28.20
2018-05-10T09:09:55.447Z,28.84
2018-05-10T09:12:24.213Z,27.11
2018-05-10T09:14:52.092Z,26.16
2018-05-10T09:17:20.385Z,25.80
2018-05-10T09:19:48.180Z,24.03
2018-05-10T09:22:15.808Z,24.20
2018-05-10T09:24:43.621Z,24.75
2018-05-10T09:27:11.950Z,24.91
2018-05-10T09:29:39.521Z,24.87
2018-05-10T09:32:07.041Z,25.06
2018-05-10T09:34:34.934Z,24.66
2018-05-10T09:37:02.598Z,24.44
2018-05-10T09:39:30.455Z,24.40
2018-05-10T09:41:58.127Z,23.81
2018-05-10T09:44:25.880Z,23.12
2018-05-10T09:46:53.609Z,23.47
2018-05-10T09:49:21.314Z,22.74
2018-05-10T09:51:48.910Z,23.42
2018-05-10T09:54:16.618Z,23.23
2018-05-10T09:56:44.301Z,22.99
2018-05-10T09:59:12.172Z,22.87
2018-05-10T10:01:39.829Z,23.30
2018-05-10T10:04:07.578Z,23.84
2018-05-10T10:06:35.553Z,22.58
2018-05-10T10:09:03.325Z,22.30
2018-05-10T10:11:31.113Z,21.41
2018-05-10T10:13:58.957Z,21.70
2018-05-10T10:16:26.724Z,21.61
2018-05-10T10:18:54.895Z,21.27
2018-05-10T10:21:22.817Z,21.32
2018-05-10T10:23:50.395Z,21.46
2018-05-10T10:26:18.700Z,21.01
2018-05-10T10:28:46.566Z,21.27
2018-05-10T10:31:14.231Z,21.37
2018-05-10T10:33:42.299Z,21.73
2018-05-10T10:36:10.220Z,20.75
2018-05-10T10:38:38.134Z,20.84
2018-05-10T10:41:06.209Z,20.72
2018-05-10T10:43:34.277Z,20.12
2018-05-10T10:46:02.656Z,19.81
2018-05-10T10:48:30.821Z,19.76
2018-05-10T10:50:58.902Z,19.53
2018-05-10T10:53:26.668Z,19.86
2018-05-10T10:55:54.807Z,19.39
2018-05-10T10:58:22.705Z,19.49
2018-05-10T11:00:50.777Z,19.29
2018-05-10T11:03:18.850Z,19.08
2018-05-10T11:05:46.715Z,19.69
2018-05-10T11:08:14.463Z,19.36
2018-05-10T11:10:43.165Z,19.12
2018-05-10T11:13:11.543Z,19.82
2018-05-10T11:15:39.302Z,19.04
2018-05-10T11:18:07.281Z,18.98
2018-05-10T11:20:35.144Z,19.57
2018-05-10T11:23:03.115Z,19.86
2018-05-10T11:25:31.184Z,19.45
2018-05-10T11:27:58.935Z,19.78
2018-05-10T11:30:26.709Z,20.25
2018-05-10T11:32:54.856Z,20.51
2018-05-10T11:35:22.753Z,20.62
2018-05-10T11:37:50.619Z,21.35
2018-05-10T11:40:18.595Z,22.22
2018-05-10T11:42:46.458Z,22.43
2018-05-10T11:45:14.426Z,22.03
2018-05-10T11:47:42.601Z,22.15
2018-05-10T11:50:10.260Z,22.07
2018-05-10T11:52:38.127Z,21.87
2018-05-10T11:55:06.096Z,22.31
2018-05-10T11:57:34.070Z,22.86
2018-05-10T12:00:02.223Z,22.87
2018-05-10T12:02:31.738Z,22.83
2018-05-10T12:04:59.860Z,22.73
2018-05-10T12:07:27.588Z,22.43
2018-05-10T12:09:55.184Z,22.58
2018-05-10T12:12:22.989Z,22.87
2018-05-10T12:14:51.049Z,22.89
2018-05-10T12:17:18.843Z,23.06
2018-05-10T12:19:46.564Z,23.36
2018-05-10T12:22:14.473Z,23.46
2018-05-10T12:24:43.500Z,23.24
2018-05-10T12:27:12.485Z,22.90
2018-05-10T12:29:40.854Z,22.38
2018-05-10T12:32:09.148Z,22.26
2018-05-10T12:34:36.879Z,22.28
2018-05-10T12:37:04.845Z,22.54
2018-05-10T12:39:33.107Z,22.78
2018-05-10T12:42:01.192Z,23.50
2018-05-10T12:44:29.061Z,24.03
2018-05-10T12:46:58.452Z,24.05
2018-05-10T12:49:26.430Z,24.32
2018-05-10T12:51:54.043Z,24.51
2018-05-10T12:54:22.984Z,24.33
2018-05-10T12:56:50.854Z,24.23
2018-05-10T12:59:18.825Z,24.30
2018-05-10T13:01:46.676Z,23.93
2018-05-10T13:04:14.449Z,23.61
2018-05-10T13:06:43.155Z,23.66
2018-05-10T13:09:11.823Z,23.50
2018-05-10T13:11:39.648Z,23.12
2018-05-10T13:14:07.656Z,23.02
2018-05-10T13:16:35.349Z,22.99
2018-05-10T13:19:03.025Z,22.55
2018-05-10T13:21:30.846Z,22.36
2018-05-10T13:23:58.577Z,22.21
2018-05-10T13:26:26.380Z,21.83
2018-05-10T13:28:54.267Z,21.59
2018-05-10T13:31:22.210Z,21.57
2018-05-10T13:33:50.096Z,21.53
2018-05-10T13:36:17.944Z,21.58
2018-05-10T13:38:46.082Z,21.61
2018-05-10T13:41:13.759Z,20.62
2018-05-10T13:43:41.647Z,20.40
2018-05-10T13:46:10.536Z,20.24
2018-05-10T13:48:38.611Z,19.72
2018-05-10T13:51:06.474Z,19.80
2018-05-10T13:53:34.853Z,19.27
2018-05-10T13:56:02.821Z,19.17
2018-05-10T13:58:30.892Z,18.68
2018-05-10T14:00:59.169Z,18.66
2018-05-10T14:03:27.037Z,19.02
2018-05-10T14:05:54.980Z,19.14
2018-05-10T14:08:22.974Z,18.85
2018-05-10T14:10:51.005Z,18.99
2018-05-10T14:13:19.730Z,19.16
2018-05-10T14:15:48.403Z,18.81
2018-05-10T14:18:16.284Z,18.89
2018-05-10T14:20:44.253Z,18.57
2018-05-10T14:23:12.135Z,18.40
2018-05-10T14:25:40.113Z,18.14
2018-05-10T14:28:08.058Z,17.79
2018-05-10T14:30:36.230Z,17.88
2018-05-10T14:33:04.098Z,17.64
2018-05-10T14:35:32.158Z,17.29
2018-05-10T14:38:01.162Z,17.19
2018-05-10T14:40:29.196Z,17.59
2018-05-10T14:42:57.612Z,16.48
2018-05-10T14:45:26.400Z,16.51
2018-05-10T14:47:54.369Z,16.31
2018-05-10T14:50:23.260Z,16.19
2018-05-10T14:52:52.149Z,16.33
2018-05-10T14:55:20.017Z,15.75
2018-05-10T14:57:47.986Z,15.78
2018-05-10T15:00:17.084Z,16.05
2018-05-10T15:02:45.146Z,16.04
2018-05-10T15:05:13.019Z,15.62
2018-05-10T15:07:41.401Z,15.71
2018-05-10T15:10:09.367Z,15.77
2018-05-10T15:12:37.233Z,15.83
2018-05-10T15:15:06.840Z,15.97
2018-05-10T15:17:34.871Z,15.71
2018-05-10T15:20:02.742Z,15.85
2018-05-10T15:22:30.644Z,15.90
2018-05-10T15:24:58.716Z,15.65
2018-05-10T15:27:26.638Z,15.89
2018-05-10T15:29:54.910Z,15.72
2018-05-10T15:32:24.007Z,15.65
2018-05-10T15:34:52.096Z,15.49
2018-05-10T15:37:20.612Z,15.77
2018-05-10T15:39:48.548Z,15.38
2018-05-10T15:42:16.650Z,15.38
2018-05-10T15:44:44.823Z,15.56
2018-05-10T15:47:12.827Z,15.81
2018-05-10T15:49:41.010Z,15.75
2018-05-10T15:52:09.432Z,15.74
2018-05-10T15:54:38.133Z,16.03
2018-05-10T15:57:05.999Z,15.87
2018-05-10T15:59:34.172Z,15.91
2018-05-10T16:02:02.148Z,16.08
2018-05-10T16:04:30.419Z,16.13
2018-05-10T16:06:58.718Z,16.24
2018-05-10T16:09:26.766Z,16.28
2018-05-10T16:11:54.633Z,16.17
2018-05-10T16:14:22.602Z,16.24
2018-05-10T16:16:52.211Z,15.93
2018-05-10T16:19:19.988Z,15.96
2018-05-10T16:21:48.250Z,16.09
2018-05-10T16:24:16.219Z,16.09
2018-05-10T16:26:45.007Z,16.04
2018-05-10T16:29:13.183Z,16.15
2018-05-10T16:31:41.047Z,15.99
2018-05-10T16:34:08.913Z,15.98
2018-05-10T16:36:36.882Z,16.07
2018-05-10T16:39:05.831Z,15.94
2018-05-10T16:41:34.152Z,15.80
2018-05-10T16:44:02.325Z,15.84
2018-05-10T16:46:30.499Z,15.42
2018-05-10T16:48:58.468Z,15.53
2018-05-10T16:51:26.438Z,16.06
2018-05-10T16:53:54.304Z,15.81
2018-05-10T16:56:22.171Z,15.99
2018-05-10T16:58:50.549Z,16.00
2018-05-10T17:01:18.418Z,16.08
2018-05-10T17:03:47.306Z,16.14
2018-05-10T17:06:15.541Z,15.86
2018-05-10T17:08:43.449Z,15.81
2018-05-10T17:11:11.417Z,15.79
2018-05-10T17:13:39.591Z,15.80
2018-05-10T17:16:08.181Z,15.72
2018-05-10T17:18:36.017Z,15.98
2018-05-10T17:21:04.215Z,15.89
2018-05-10T17:23:33.823Z,16.13
2018-05-10T17:26:01.797Z,16.11
2018-05-10T17:28:30.069Z,16.15
2018-05-10T17:30:59.009Z,16.21
2018-05-10T17:33:26.927Z,16.06
2018-05-10T17:35:55.011Z,16.13
2018-05-10T17:38:22.867Z,16.18
2018-05-10T17:40:50.644Z,16.19
2018-05-10T17:43:19.325Z,16.12
2018-05-10T17:45:47.613Z,16.22
2018-05-10T17:48:15.514Z,16.12
2018-05-10T17:50:43.433Z,16.32
2018-05-10T17:53:11.398Z,16.36
2018-05-10T17:55:39.174Z,16.05
2018-05-10T17:58:07.149Z,16.22
2018-05-10T18:00:35.099Z,16.18
2018-05-10T18:03:02.964Z,15.93
2018-05-10T18:05:30.949Z,15.95
2018-05-10T18:07:58.800Z,16.07
2018-05-10T18:10:26.733Z,16.02
2018-05-10T18:12:54.841Z,16.19
2018-05-10T18:15:22.503Z,16.21
2018-05-10T18:17:50.733Z,16.30
2018-05-10T18:20:18.527Z,16.16
2018-05-10T18:22:46.618Z,16.26
2018-05-10T18:25:15.001Z,16.07
2018-05-10T18:27:43.269Z,16.02
2018-05-10T18:30:11.195Z,16.14
2018-05-10T18:32:39.061Z,16.04
2018-05-10T18:35:07.278Z,16.22
2018-05-10T18:37:35.050Z,16.12
2018-05-10T18:40:03.137Z,16.23
2018-05-10T18:42:31.186Z,16.20
2018-05-10T18:44:58.972Z,16.31
2018-05-10T18:47:26.793Z,16.28
2018-05-10T18:49:54.683Z,16.24
2018-05-10T18:52:22.472Z,15.98
2018-05-10T18:54:50.348Z,15.92
2018-05-10T18:57:18.854Z,16.01
2018-05-10T18:59:47.174Z,16.26
2018-05-10T19:02:16.371Z,16.22
2018-05-10T19:04:44.135Z,16.07
2018-05-10T19:07:12.465Z,16.28
2018-05-10T19:09:40.278Z,16.27
2018-05-10T19:12:08.351Z,16.16
2018-05-10T19:14:36.215Z,16.24
2018-05-10T19:17:04.185Z,16.26
2018-05-10T19:19:32.107Z,16.41
2018-05-10T19:21:59.911Z,16.55
2018-05-10T19:24:27.767Z,16.23
2018-05-10T19:26:55.551Z,16.39
2018-05-10T19:29:23.290Z,16.25
2018-05-10T19:31:51.474Z,16.27
2018-05-10T19:34:19.354Z,16.32
2018-05-10T19:36:47.220Z,16.39
2018-05-10T19:39:16.417Z,16.37
2018-05-10T19:41:45.719Z,16.36
2018-05-10T19:44:13.690Z,16.24
2018-05-10T19:46:41.553Z,16.41
2018-05-10T19:49:09.556Z,16.39
2018-05-10T19:51:37.491Z,16.42
2018-05-10T19:54:05.298Z,16.38
2018-05-10T19:56:33.164Z,16.40
2018-05-10T19:59:00.988Z,16.36
2018-05-10T20:01:28.857Z,16.37
2018-05-10T20:03:57.143Z,16.24
2018-05-10T20:06:25.408Z,16.17
2018-05-10T20:08:53.248Z,16.28
2018-05-10T20:11:21.244Z,16.25
2018-05-10T20:13:49.118Z,16.21
2018-05-10T20:16:17.180Z,16.12
2018-05-10T20:18:45.578Z,16.13
2018-05-10T20:21:13.517Z,16.15
2018-05-10T20:23:41.351Z,16.06
2018-05-10T20:26:09.263Z,16.16
2018-05-10T20:28:37.588Z,16.11
2018-05-10T20:31:05.620Z,16.06
2018-05-10T20:33:33.989Z,15.91
2018-05-10T20:36:02.821Z,16.05
2018-05-10T20:38:31.975Z,16.07
2018-05-10T20:41:00.256Z,16.09
2018-05-10T20:43:29.339Z,16.14
2018-05-10T20:45:57.212Z,16.16
2018-05-10T20:48:25.348Z,16.10
2018-05-10T20:50:53.254Z,16.21
2018-05-10T20:53:21.120Z,16.21
2018-05-10T20:55:49.346Z,16.25
2018-05-10T20:58:17.980Z,16.11
2018-05-10T21:00:45.952Z,16.23
2018-05-10T21:03:14.020Z,16.08
2018-05-10T21:05:41.784Z,16.20
2018-05-10T21:08:09.664Z,16.05
2018-05-10T21:10:37.823Z,15.96
2018-05-10T21:13:05.595Z,16.13
2018-05-10T21:15:33.557Z,16.11
2018-05-10T21:18:04.920Z,16.10
2018-05-10T21:20:32.776Z,16.06
2018-05-10T21:23:00.434Z,16.08
2018-05-10T21:25:28.196Z,16.03
2018-05-10T21:27:56.066Z,16.04
2018-05-10T21:30:23.930Z,15.95
2018-05-10T21:32:52.616Z,15.86
2018-05-10T21:35:20.513Z,15.84
2018-05-10T21:37:48.555Z,15.66
2018-05-10T21:40:16.626Z,15.76
2018-05-10T21:42:45.319Z,15.82
2018-05-10T21:45:20.350Z,15.69
2018-05-10T21:47:48.011Z,15.68
2018-05-10T21:50:15.598Z,15.68
2018-05-10T21:52:44.005Z,15.61
2018-05-10T21:55:12.017Z,15.63
2018-05-10T21:57:39.601Z,15.32
2018-05-10T22:00:07.544Z,15.28
2018-05-10T22:02:35.313Z,15.28
2018-05-10T22:05:02.973Z,15.03
2018-05-10T22:07:30.891Z,14.92
2018-05-10T22:09:58.681Z,14.82
2018-05-10T22:12:26.246Z,14.83
2018-05-10T22:14:54.028Z,14.85
2018-05-10T22:17:21.566Z,14.85
2018-05-10T22:19:49.444Z,14.77
2018-05-10T22:22:17.147Z,14.54
2018-05-10T22:24:45.594Z,14.63
2018-05-10T22:27:13.326Z,14.73
2018-05-10T22:29:41.121Z,14.49
2018-05-10T22:32:08.658Z,14.67
2018-05-10T22:34:36.369Z,14.70
2018-05-10T22:37:05.239Z,14.52
2018-05-10T22:39:32.768Z,14.30
2018-05-10T22:42:00.297Z,14.09
2018-05-10T22:44:27.952Z,14.06
2018-05-10T22:46:55.437Z,14.25
2018-05-10T22:49:22.979Z,14.26
2018-05-10T22:51:52.272Z,13.97
2018-05-10T22:54:19.813Z,14.21
2018-05-10T22:56:47.352Z,14.17
2018-05-10T22:59:15.180Z,14.20
2018-05-10T23:01:42.725Z,14.29
2018-05-10T23:04:10.256Z,14.62
2018-05-10T23:06:38.001Z,14.64
2018-05-10T23:09:06.377Z,14.68
2018-05-10T23:11:33.940Z,14.38
2018-05-10T23:14:01.597Z,14.60
2018-05-10T23:16:29.125Z,14.12
2018-05-10T23:18:56.710Z,14.33
2018-05-10T23:21:24.787Z,14.61
2018-05-10T23:23:52.582Z,14.48
2018-05-10T23:26:20.680Z,14.43
2018-05-10T23:28:48.308Z,14.50
2018-05-10T23:31:15.897Z,14.42
2018-05-10T23:33:44.409Z,14.08
2018-05-10T23:36:12.174Z,14.07
2018-05-10T23:38:39.702Z,14.12
2018-05-10T23:41:07.234Z,14.00
2018-05-10T23:43:35.154Z,14.22
2018-05-10T23:46:02.955Z,14.17
2018-05-10T23:48:30.600Z,14.07
2018-05-10T23:50:58.162Z,14.11
2018-05-10T23:53:25.712Z,14.13
2018-05-10T23:55:53.236Z,14.02
2018-05-10T23:58:21.024Z,14.06
